createdAt,value
2022-10-17T00:00:19.022Z,12.30
2022-10-17T00:05:20.795Z,12.20
2022-10-17T00:10:24.377Z,12.10
2022-10-17T00:15:26.306Z,12.00
2022-10-17T00:20:30.346Z,12.00
2022-10-17T00:25:32.289Z,11.90
2022-10-17T00:30:34.147Z,11.90
2022-10-17T00:35:35.926Z,11.80
2022-10-17T00:40:37.714Z,11.80
2022-10-17T00:45:39.568Z,11.80
2022-10-17T00:50:44.184Z,11.80
2022-10-17T00:55:51.133Z,11.70
2022-10-17T01:00:53.022Z,11.60
2022-10-17T01:05:55.611Z,11.60
2022-10-17T01:11:17.670Z,11.60
2022-10-17T01:16:34.404Z,11.50
2022-10-17T01:21:48.195Z,11.40
2022-10-17T01:27:11.435Z,11.40
2022-10-17T01:32:17.371Z,11.40
2022-10-17T01:37:28.448Z,11.30
2022-10-17T01:42:40.508Z,11.30
2022-10-17T01:47:43.155Z,11.30
2022-10-17T01:52:51.799Z,11.20
2022-10-17T01:57:58.416Z,11.20
2022-10-17T02:03:04.239Z,11.20
2022-10-17T02:08:06.710Z,11.10
2022-10-17T02:13:20.789Z,11.20
2022-10-17T02:19:04.360Z,11.20
2022-10-17T02:24:24.746Z,11.10
2022-10-17T02:29:34.362Z,11.10
2022-10-17T02:34:50.805Z,11.00
2022-10-17T02:39:56.470Z,11.00
2022-10-17T02:45:01.570Z,10.90
2022-10-17T02:50:05.761Z,10.90
2022-10-17T02:55:32.975Z,10.80
2022-10-17T03:00:35.588Z,10.80
2022-10-17T03:05:37.567Z,10.70
2022-10-17T03:10:40.708Z,10.70
2022-10-17T03:15:42.805Z,10.70
2022-10-17T03:20:45.548Z,10.70
2022-10-17T03:25:47.371Z,10.70
2022-10-17T03:30:50.836Z,10.50
2022-10-17T03:35:53.817Z,10.50
2022-10-17T03:40:56.606Z,10.50
2022-10-17T03:46:00.273Z,10.50
2022-10-17T03:51:09.709Z,10.50
2022-10-17T03:56:26.655Z,10.50
2022-10-17T04:01:38.513Z,10.50
2022-10-17T04:06:40.644Z,10.50
2022-10-17T04:11:42.574Z,10.40
2022-10-17T04:16:44.616Z,10.50
2022-10-17T04:21:51.487Z,10.50
2022-10-17T04:26:55.031Z,10.40
2022-10-17T04:31:59.763Z,10.50
2022-10-17T04:37:17.544Z,10.40
2022-10-17T04:42:21.350Z,10.30
2022-10-17T04:47:25.032Z,10.30
2022-10-17T04:52:27.464Z,10.30
2022-10-17T04:57:29.896Z,10.20
2022-10-17T05:02:39.492Z,10.30
2022-10-17T05:07:41.823Z,10.20
2022-10-17T05:12:52.010Z,10.10
2022-10-17T05:17:57.616Z,10.10
2022-10-17T05:23:02.063Z,10.10
2022-10-17T05:28:09.318Z,10.20
2022-10-17T05:33:12.670Z,10.20
2022-10-17T05:38:15.526Z,10.10
2022-10-17T05:43:19.371Z,10.10
2022-10-17T05:48:23.463Z,10.10
2022-10-17T05:53:26.112Z,10.10
2022-10-17T05:58:49.103Z,10.20
2022-10-17T06:04:10.358Z,10.20
2022-10-17T06:09:13.299Z,10.10
2022-10-17T06:14:18.876Z,10.20
2022-10-17T06:19:23.199Z,10.20
2022-10-17T06:24:25.144Z,10.20
2022-10-17T06:29:28.390Z,10.30
2022-10-17T06:34:30.225Z,10.40
2022-10-17T06:39:33.971Z,10.50
2022-10-17T06:44:51.312Z,10.70
2022-10-17T06:50:08.935Z,10.80
2022-10-17T06:55:22.644Z,11.10
2022-10-17T07:01:01.810Z,11.40
2022-10-17T07:06:04.828Z,11.60
2022-10-17T07:11:12.008Z,11.80
2022-10-17T07:16:14.957Z,12.10
2022-10-17T07:21:17.771Z,12.30
2022-10-17T07:26:20.051Z,12.60
2022-10-17T07:31:23.605Z,12.90
2022-10-17T07:36:25.491Z,13.20
2022-10-17T07:41:27.815Z,13.50
2022-10-17T07:46:30.738Z,13.70
2022-10-17T07:51:32.759Z,14.10
2022-10-17T07:56:34.600Z,14.40
2022-10-17T08:01:36.924Z,14.70
2022-10-17T08:06:38.821Z,15.00
2022-10-17T08:11:41.048Z,15.30
2022-10-17T08:16:43.294Z,15.60
2022-10-17T08:21:46.823Z,15.80
2022-10-17T08:26:51.680Z,16.00
2022-10-17T08:31:58.550Z,16.20
2022-10-17T08:37:03.673Z,16.40
2022-10-17T08:42:08.484Z,16.60
2022-10-17T08:47:14.640Z,16.80
2022-10-17T08:52:39.544Z,17.00
2022-10-17T08:57:41.368Z,17.10
2022-10-17T09:02:54.310Z,17.30
2022-10-17T09:08:20.982Z,17.30
2022-10-17T09:13:38.183Z,17.50
2022-10-17T09:18:47.848Z,17.70
2022-10-17T09:23:59.694Z,17.70
2022-10-17T09:29:36.080Z,17.80
2022-10-17T09:34:39.903Z,17.90
2022-10-17T09:39:42.768Z,17.90
2022-10-17T09:45:26.981Z,18.00
2022-10-17T09:50:34.060Z,18.10
2022-10-17T09:55:43.601Z,18.20
2022-10-17T10:00:47.506Z,18.40
2022-10-17T10:06:06.413Z,18.50
2022-10-17T10:11:13.425Z,18.60
2022-10-17T10:16:30.581Z,18.60
2022-10-17T10:21:32.613Z,18.70
2022-10-17T10:26:47.527Z,18.70
2022-10-17T10:31:50.688Z,18.90
2022-10-17T10:36:59.417Z,18.90
2022-10-17T10:42:03.532Z,19.00
2022-10-17T10:47:17.456Z,19.10
2022-10-17T10:52:45.237Z,19.20
2022-10-17T10:57:49.315Z,19.40
2022-10-17T11:03:04.232Z,19.40
2022-10-17T11:08:23.900Z,19.60
2022-10-17T11:13:31.926Z,19.60
2022-10-17T11:18:44.688Z,19.70
2022-10-17T11:24:05.642Z,19.80
2022-10-17T11:29:12.344Z,19.90
2022-10-17T11:34:25.220Z,20.00
2022-10-17T11:39:39.450Z,20.00
2022-10-17T11:44:42.619Z,20.10
2022-10-17T11:49:55.078Z,20.20
2022-10-17T11:55:14.040Z,20.20
2022-10-17T12:00:25.060Z,20.30
2022-10-17T12:05:37.680Z,20.40
2022-10-17T12:11:06.758Z,20.50
2022-10-17T12:16:20.642Z,20.60
2022-10-17T12:21:22.526Z,20.70
2022-10-17T12:26:29.679Z,20.70
2022-10-17T12:31:34.193Z,20.70
2022-10-17T12:36:37.215Z,20.80
2022-10-17T12:41:39.109Z,20.80
2022-10-17T12:47:18.976Z,20.80
2022-10-17T12:52:34.968Z,20.80
2022-10-17T12:57:42.674Z,20.80
2022-10-17T13:02:45.376Z,20.90
2022-10-17T13:07:49.296Z,20.90
2022-10-17T13:13:05.695Z,20.80
2022-10-17T13:18:21.955Z,20.90
2022-10-17T13:23:32.382Z,20.90
2022-10-17T13:28:39.063Z,20.90
2022-10-17T13:33:42.304Z,20.80
2022-10-17T13:38:44.300Z,20.90
2022-10-17T13:43:46.162Z,20.80
2022-10-17T13:48:49.494Z,20.80
2022-10-17T13:53:51.295Z,20.70
2022-10-17T13:58:57.289Z,20.60
2022-10-17T14:04:20.100Z,20.60
2022-10-17T14:09:28.137Z,20.40
2022-10-17T14:14:41.655Z,20.20
2022-10-17T14:20:16.087Z,20.00
2022-10-17T14:25:38.261Z,19.70
2022-10-17T14:30:58.598Z,19.60
2022-10-17T14:36:01.942Z,19.40
2022-10-17T14:41:41.433Z,19.30
2022-10-17T14:46:36.480Z,19.10
2022-10-17T14:51:50.410Z,19.00
2022-10-17T14:56:58.796Z,18.90
2022-10-17T15:02:00.563Z,18.80
2022-10-17T15:07:02.319Z,18.70
2022-10-17T15:12:06.918Z,18.60
2022-10-17T15:17:34.918Z,18.40
2022-10-17T15:22:36.715Z,18.20
2022-10-17T15:27:38.523Z,18.10
2022-10-17T15:32:40.271Z,17.90
2022-10-17T15:37:42.970Z,17.80
2022-10-17T15:42:45.375Z,17.70
2022-10-17T15:47:57.081Z,17.50
2022-10-17T15:52:59.579Z,17.30
2022-10-17T15:58:01.461Z,17.10
2022-10-17T16:03:03.221Z,17.00
2022-10-17T16:08:05.176Z,16.80
2022-10-17T16:13:09.520Z,16.70
2022-10-17T16:18:11.340Z,16.40
2022-10-17T16:23:14.584Z,16.20
2022-10-17T16:28:16.344Z,16.00
2022-10-17T16:33:18.075Z,15.90
2022-10-17T16:38:19.804Z,15.70
2022-10-17T16:43:21.671Z,15.60
2022-10-17T16:48:28.811Z,15.40
2022-10-17T16:53:31.568Z,15.30
2022-10-17T16:58:33.322Z,15.10
2022-10-17T17:03:39.863Z,15.00
2022-10-17T17:08:42.532Z,14.90
2022-10-17T17:13:44.621Z,14.80
2022-10-17T17:18:46.767Z,14.70
2022-10-17T17:23:49.708Z,14.60
2022-10-17T17:28:53.418Z,14.30
2022-10-17T17:38:59.178Z,14.20
2022-10-17T17:44:01.697Z,14.10
2022-10-17T17:49:03.515Z,14.00
2022-10-17T17:54:05.396Z,14.00
2022-10-17T17:59:07.482Z,14.00
2022-10-17T18:04:10.072Z,13.90
2022-10-17T18:09:11.828Z,13.90
2022-10-17T18:14:13.906Z,13.90
2022-10-17T18:19:16.143Z,13.80
2022-10-17T18:24:17.940Z,13.70
2022-10-17T18:29:19.819Z,13.60
2022-10-17T18:34:21.580Z,13.60
2022-10-17T18:39:23.368Z,13.50
2022-10-17T18:44:25.296Z,13.40
2022-10-17T18:49:27.428Z,13.40
2022-10-17T18:54:32.084Z,13.30
2022-10-17T18:59:34.072Z,13.20
2022-10-17T19:04:35.824Z,13.20
2022-10-17T19:09:37.608Z,13.10
2022-10-17T19:14:39.461Z,13.10
2022-10-17T19:19:41.460Z,13.00
2022-10-17T19:24:43.205Z,12.80
2022-10-17T19:29:45.004Z,12.70
2022-10-17T19:34:46.790Z,12.70
2022-10-17T19:39:49.347Z,12.60
2022-10-17T19:44:51.474Z,12.50
2022-10-17T19:49:53.269Z,12.40
2022-10-17T19:54:55.187Z,12.30
2022-10-17T19:59:57.450Z,12.30
2022-10-17T20:05:13.802Z,12.30
2022-10-17T20:10:19.234Z,12.30
2022-10-17T20:15:21.038Z,12.20
2022-10-17T20:20:22.835Z,12.20
2022-10-17T20:25:24.740Z,12.10
2022-10-17T20:30:26.559Z,12.10
2022-10-17T20:35:28.365Z,12.10
2022-10-17T20:40:35.118Z,12.00
2022-10-17T20:45:50.734Z,11.90
2022-10-17T20:50:53.907Z,11.80
2022-10-17T20:56:08.166Z,11.90
2022-10-17T21:01:10.756Z,11.80
2022-10-17T21:06:14.420Z,11.80
2022-10-17T21:11:21.478Z,11.70
2022-10-17T21:16:23.939Z,11.70
2022-10-17T21:21:32.598Z,11.70
2022-10-17T21:26:36.689Z,11.60
2022-10-17T21:31:44.110Z,11.60
2022-10-17T21:36:45.824Z,11.60
2022-10-17T21:41:47.604Z,11.50
2022-10-17T21:46:49.979Z,11.40
2022-10-17T21:51:52.596Z,11.40
2022-10-17T21:56:54.327Z,11.50
2022-10-17T22:01:56.080Z,11.40
2022-10-17T22:06:57.853Z,11.40
2022-10-17T22:11:59.619Z,11.40
2022-10-17T22:17:01.615Z,11.40
2022-10-17T22:22:03.520Z,11.40
2022-10-17T22:27:06.139Z,11.40
2022-10-17T22:32:07.905Z,11.20
2022-10-17T22:37:09.667Z,11.20
2022-10-17T22:42:11.508Z,11.20
2022-10-17T22:47:13.329Z,11.20
2022-10-17T22:52:15.118Z,11.10
2022-10-17T22:57:16.947Z,11.20
2022-10-17T23:02:18.692Z,11.20
2022-10-17T23:07:20.494Z,11.20
2022-10-17T23:12:22.631Z,11.00
2022-10-17T23:17:24.410Z,11.00
2022-10-17T23:22:26.204Z,11.10
2022-10-17T23:27:27.971Z,11.10
2022-10-17T23:32:30.085Z,11.10
2022-10-17T23:37:32.391Z,11.10
2022-10-17T23:42:34.369Z,11.00
2022-10-17T23:47:36.147Z,11.00
2022-10-17T23:52:37.979Z,11.00
2022-10-17T23:57:39.776Z,11.00
